createdAt,value
2023-01-15T00:00:52.744Z,3.67
2023-01-15T00:03:19.244Z,3.67
2023-01-15T00:05:45.696Z,4.07
2023-01-15T00:08:12.315Z,3.97
2023-01-15T00:10:38.874Z,4.03
2023-01-15T00:13:05.349Z,3.97
2023-01-15T00:15:31.894Z,3.50
2023-01-15T00:18:14.292Z,3.35
2023-01-15T00:20:40.867Z,3.90
2023-01-15T00:23:27.410Z,3.40
2023-01-15T00:26:14.981Z,3.47
2023-01-15T00:28:41.871Z,3.40
2023-01-15T00:31:08.337Z,3.15
2023-01-15T00:33:34.860Z,3.40
2023-01-15T00:36:01.410Z,2.80
2023-01-15T00:38:27.863Z,3.75
2023-01-15T00:40:54.379Z,3.00
2023-01-15T00:43:20.876Z,3.15
2023-01-15T00:45:47.428Z,3.40
2023-01-15T00:48:14.076Z,3.30
2023-01-15T00:50:40.692Z,3.00
2023-01-15T00:53:07.235Z,2.90
2023-01-15T00:55:33.757Z,3.20
2023-01-15T00:58:00.393Z,3.25
2023-01-15T01:00:26.866Z,2.65
2023-01-15T01:02:53.694Z,2.58
2023-01-15T01:05:20.264Z,2.72
2023-01-15T01:07:46.789Z,3.10
2023-01-15T01:10:13.357Z,2.80
2023-01-15T01:12:39.989Z,2.80
2023-01-15T01:15:07.041Z,2.70
2023-01-15T01:17:33.871Z,2.50
2023-01-15T01:20:00.561Z,2.70
2023-01-15T01:22:27.788Z,3.25
2023-01-15T01:24:54.356Z,2.97
2023-01-15T01:27:20.814Z,3.05
2023-01-15T01:29:47.355Z,2.80
2023-01-15T01:32:13.876Z,3.10
2023-01-15T01:34:40.464Z,2.80
2023-01-15T01:37:07.011Z,2.65
2023-01-15T01:39:33.507Z,2.95
2023-01-15T01:42:00.027Z,3.63
2023-01-15T01:44:32.556Z,3.20
2023-01-15T01:47:05.761Z,3.15
2023-01-15T01:49:32.387Z,3.35
2023-01-15T01:52:02.906Z,3.05
2023-01-15T01:54:31.240Z,2.83
2023-01-15T01:56:58.111Z,3.10
2023-01-15T01:59:25.237Z,3.08
2023-01-15T02:01:52.119Z,2.80
2023-01-15T02:04:20.674Z,2.90
2023-01-15T02:06:47.313Z,3.38
2023-01-15T02:09:13.910Z,2.90
2023-01-15T02:11:40.500Z,3.47
2023-01-15T02:14:19.702Z,2.70
2023-01-15T02:16:56.571Z,2.65
2023-01-15T02:20:00.660Z,2.60
2023-01-15T02:22:27.156Z,2.42
2023-01-15T02:25:13.827Z,2.30
2023-01-15T02:27:44.507Z,2.63
2023-01-15T02:30:34.152Z,2.25
2023-01-15T02:33:06.878Z,2.40
2023-01-15T02:36:01.162Z,2.50
2023-01-15T02:38:33.926Z,2.30
2023-01-15T02:41:01.478Z,2.50
2023-01-15T02:43:29.925Z,2.63
2023-01-15T02:45:58.562Z,2.58
2023-01-15T02:48:28.016Z,2.60
2023-01-15T02:50:59.417Z,2.38
2023-01-15T02:53:29.878Z,2.70
2023-01-15T02:56:01.674Z,2.30
2023-01-15T02:58:33.363Z,2.60
2023-01-15T03:01:01.953Z,3.40
2023-01-15T03:03:36.560Z,2.63
2023-01-15T03:06:11.235Z,2.67
2023-01-15T03:08:37.919Z,2.50
2023-01-15T03:11:15.510Z,2.55
2023-01-15T03:13:45.202Z,2.50
2023-01-15T03:16:35.430Z,2.30
2023-01-15T03:19:01.901Z,2.45
2023-01-15T03:21:36.204Z,2.17
2023-01-15T03:24:05.090Z,2.65
2023-01-15T03:26:31.987Z,2.72
2023-01-15T03:28:58.794Z,2.45
2023-01-15T03:31:25.373Z,2.50
2023-01-15T03:33:51.913Z,2.70
2023-01-15T03:36:18.468Z,2.70
2023-01-15T03:38:47.297Z,2.50
2023-01-15T03:41:13.912Z,2.47
2023-01-15T03:44:12.905Z,2.58
2023-01-15T03:47:04.677Z,2.42
2023-01-15T03:49:47.987Z,2.65
2023-01-15T03:52:28.297Z,2.50
2023-01-15T03:55:16.925Z,2.85
2023-01-15T03:57:52.472Z,2.88
2023-01-15T04:00:28.001Z,2.45
2023-01-15T04:02:55.573Z,2.38
2023-01-15T04:05:23.210Z,2.28
2023-01-15T04:07:50.278Z,2.60
2023-01-15T04:10:17.076Z,2.47
2023-01-15T04:12:43.583Z,2.65
2023-01-15T04:15:12.142Z,2.25
2023-01-15T04:17:39.129Z,2.60
2023-01-15T04:20:06.333Z,2.30
2023-01-15T04:22:33.029Z,2.50
2023-01-15T04:24:59.540Z,2.15
2023-01-15T04:27:27.299Z,2.53
2023-01-15T04:29:53.965Z,2.35
2023-01-15T04:32:20.550Z,2.00
2023-01-15T04:34:47.071Z,2.30
2023-01-15T04:37:16.145Z,2.70
2023-01-15T04:39:42.835Z,2.40
2023-01-15T04:42:32.049Z,2.05
2023-01-15T04:44:58.572Z,2.10
2023-01-15T04:47:27.956Z,2.33
2023-01-15T04:49:54.464Z,2.17
2023-01-15T04:52:21.084Z,2.00
2023-01-15T04:54:54.806Z,2.30
2023-01-15T04:57:21.346Z,2.38
2023-01-15T04:59:47.897Z,2.40
2023-01-15T05:02:15.492Z,2.20
2023-01-15T05:04:42.287Z,2.53
2023-01-15T05:07:09.897Z,2.28
2023-01-15T05:09:36.677Z,2.03
2023-01-15T05:12:03.547Z,2.40
2023-01-15T05:14:30.218Z,2.10
2023-01-15T05:16:56.870Z,2.17
2023-01-15T05:19:23.395Z,2.45
2023-01-15T05:21:50.193Z,2.65
2023-01-15T05:24:17.750Z,2.47
2023-01-15T05:26:44.765Z,2.38
2023-01-15T05:29:13.695Z,2.53
2023-01-15T05:31:41.918Z,2.35
2023-01-15T05:34:09.840Z,2.10
2023-01-15T05:36:37.754Z,2.33
2023-01-15T05:39:04.894Z,2.33
2023-01-15T05:41:49.612Z,2.28
2023-01-15T05:44:22.983Z,2.50
2023-01-15T05:46:51.176Z,2.13
2023-01-15T05:49:20.240Z,2.17
2023-01-15T05:51:47.318Z,2.60
2023-01-15T05:54:17.087Z,2.20
2023-01-15T05:56:43.670Z,2.33
2023-01-15T05:59:10.184Z,2.72
2023-01-15T06:01:36.896Z,2.67
2023-01-15T06:04:05.131Z,2.35
2023-01-15T06:06:32.076Z,2.28
2023-01-15T06:08:58.803Z,2.55
2023-01-15T06:11:25.386Z,2.35
2023-01-15T06:13:52.046Z,2.47
2023-01-15T06:16:19.013Z,2.50
2023-01-15T06:18:46.261Z,2.40
2023-01-15T06:21:13.952Z,2.10
2023-01-15T06:23:41.614Z,2.00
2023-01-15T06:26:18.251Z,2.33
2023-01-15T06:28:45.849Z,1.90
2023-01-15T06:31:14.924Z,2.53
2023-01-15T06:33:41.840Z,2.30
2023-01-15T06:36:12.402Z,2.38
2023-01-15T06:38:39.481Z,2.67
2023-01-15T06:41:26.576Z,2.90
2023-01-15T06:44:11.889Z,2.88
2023-01-15T06:47:02.393Z,2.72
2023-01-15T06:49:29.366Z,2.72
2023-01-15T06:51:55.957Z,2.47
2023-01-15T06:54:22.527Z,2.42
2023-01-15T06:56:49.198Z,2.25
2023-01-15T06:59:15.832Z,2.50
2023-01-15T07:01:42.657Z,3.00
2023-01-15T07:04:09.308Z,2.35
2023-01-15T07:06:35.884Z,2.50
2023-01-15T07:09:02.700Z,2.28
2023-01-15T07:11:29.323Z,2.10
2023-01-15T07:14:05.972Z,2.47
2023-01-15T07:16:36.507Z,2.17
2023-01-15T07:19:04.223Z,2.50
2023-01-15T07:21:31.023Z,2.00
2023-01-15T07:24:01.629Z,2.30
2023-01-15T07:26:28.241Z,2.40
2023-01-15T07:28:54.814Z,2.58
2023-01-15T07:31:21.702Z,2.30
2023-01-15T07:33:48.338Z,2.33
2023-01-15T07:36:14.941Z,2.80
2023-01-15T07:38:41.619Z,2.30
2023-01-15T07:41:26.406Z,2.60
2023-01-15T07:44:11.134Z,2.60
2023-01-15T07:46:56.101Z,2.60
2023-01-15T07:49:40.929Z,2.55
2023-01-15T07:52:07.410Z,2.03
2023-01-15T07:54:33.965Z,2.53
2023-01-15T07:57:00.735Z,2.53
2023-01-15T07:59:27.244Z,2.20
2023-01-15T08:01:53.912Z,2.60
2023-01-15T08:04:20.484Z,2.47
2023-01-15T08:06:47.013Z,2.40
2023-01-15T08:09:13.680Z,2.67
2023-01-15T08:11:58.795Z,2.45
2023-01-15T08:14:43.794Z,2.42
2023-01-15T08:17:10.503Z,2.38
2023-01-15T08:19:37.088Z,2.60
2023-01-15T08:22:03.664Z,2.70
2023-01-15T08:24:30.330Z,2.67
2023-01-15T08:26:56.952Z,2.67
2023-01-15T08:29:23.502Z,2.45
2023-01-15T08:31:49.980Z,2.50
2023-01-15T08:34:16.531Z,2.72
2023-01-15T08:36:43.098Z,2.85
2023-01-15T08:39:10.030Z,2.58
2023-01-15T08:41:36.566Z,2.97
2023-01-15T08:44:03.142Z,2.72
2023-01-15T08:46:29.728Z,2.88
2023-01-15T08:48:56.294Z,2.90
2023-01-15T08:51:22.868Z,2.50
2023-01-15T08:53:49.564Z,2.35
2023-01-15T08:56:18.397Z,2.50
2023-01-15T08:58:45.629Z,2.45
2023-01-15T09:01:15.895Z,2.47
2023-01-15T09:03:43.031Z,2.28
2023-01-15T09:06:11.385Z,2.78
2023-01-15T09:08:38.116Z,2.60
2023-01-15T09:11:06.177Z,3.00
2023-01-15T09:13:32.771Z,2.80
2023-01-15T09:16:00.529Z,2.10
2023-01-15T09:18:27.530Z,2.28
2023-01-15T09:20:54.252Z,2.22
2023-01-15T09:23:20.797Z,2.20
2023-01-15T09:25:55.046Z,2.00
2023-01-15T09:28:21.783Z,2.00
2023-01-15T09:30:48.438Z,2.30
2023-01-15T09:33:14.962Z,2.25
2023-01-15T09:35:43.203Z,2.47
2023-01-15T09:38:15.587Z,2.20
2023-01-15T09:40:51.409Z,2.20
2023-01-15T09:43:42.764Z,1.80
2023-01-15T09:46:22.373Z,2.17
2023-01-15T09:49:04.320Z,2.83
2023-01-15T09:51:39.158Z,2.28
2023-01-15T09:54:38.809Z,2.25
2023-01-15T09:57:11.934Z,2.20
2023-01-15T09:59:41.087Z,2.10
2023-01-15T10:02:28.547Z,2.38
2023-01-15T10:05:00.121Z,2.10
2023-01-15T10:07:44.952Z,2.00
2023-01-15T10:10:19.042Z,2.00
2023-01-15T10:12:46.206Z,2.20
2023-01-15T10:15:37.434Z,2.45
2023-01-15T10:18:08.093Z,2.03
2023-01-15T10:20:55.468Z,2.60
2023-01-15T10:23:40.320Z,3.17
2023-01-15T10:26:16.565Z,3.10
2023-01-15T10:28:55.179Z,3.08
2023-01-15T10:31:24.674Z,3.20
2023-01-15T10:34:03.536Z,3.20
2023-01-15T10:36:43.214Z,2.90
2023-01-15T10:39:16.310Z,2.85
2023-01-15T10:42:09.582Z,2.90
2023-01-15T10:45:00.488Z,2.58
2023-01-15T10:47:32.702Z,2.80
2023-01-15T10:50:00.176Z,2.40
2023-01-15T10:52:33.852Z,2.70
2023-01-15T10:55:18.767Z,2.50
2023-01-15T10:58:11.304Z,3.03
2023-01-15T11:00:39.032Z,3.00
2023-01-15T11:03:15.257Z,3.92
2023-01-15T11:05:46.654Z,3.28
2023-01-15T11:11:20.830Z,2.58
2023-01-15T11:14:15.856Z,2.78
2023-01-15T11:17:02.338Z,2.47
2023-01-15T11:19:37.204Z,2.50
2023-01-15T11:22:18.543Z,2.80
2023-01-15T11:24:48.942Z,2.63
2023-01-15T11:27:18.490Z,2.97
2023-01-15T11:29:45.568Z,2.97
2023-01-15T11:32:45.616Z,2.58
2023-01-15T11:35:17.620Z,2.40
2023-01-15T11:37:44.552Z,2.78
2023-01-15T11:40:20.758Z,2.42
2023-01-15T11:43:06.977Z,2.40
2023-01-15T11:45:52.612Z,2.50
2023-01-15T11:48:39.677Z,2.42
2023-01-15T11:51:16.708Z,2.70
2023-01-15T11:53:49.523Z,2.47
2023-01-15T11:56:18.661Z,2.00
2023-01-15T11:58:48.285Z,2.45
2023-01-15T12:01:23.943Z,2.63
2023-01-15T12:03:50.761Z,2.10
2023-01-15T12:06:19.837Z,2.10
2023-01-15T12:08:51.942Z,2.40
2023-01-15T12:11:26.758Z,2.15
2023-01-15T12:14:09.220Z,1.95
2023-01-15T12:17:09.469Z,2.13
2023-01-15T12:19:57.029Z,1.90
2023-01-15T12:22:33.236Z,1.95
2023-01-15T12:25:02.791Z,2.35
2023-01-15T12:27:38.154Z,2.38
2023-01-15T12:30:41.959Z,3.30
2023-01-15T12:33:32.845Z,3.50
2023-01-15T12:36:28.334Z,3.95
2023-01-15T12:39:01.664Z,3.45
2023-01-15T12:41:48.316Z,3.40
2023-01-15T12:44:39.178Z,3.88
2023-01-15T12:47:10.201Z,4.70
2023-01-15T12:49:42.503Z,4.50
2023-01-15T12:52:15.612Z,3.70
2023-01-15T12:54:49.860Z,4.20
2023-01-15T12:57:19.351Z,4.40
2023-01-15T12:59:54.632Z,4.03
2023-01-15T13:02:57.860Z,3.70
2023-01-15T13:05:39.003Z,3.53
2023-01-15T13:08:27.628Z,3.93
2023-01-15T13:10:54.230Z,3.42
2023-01-15T13:13:26.664Z,3.45
2023-01-15T13:15:58.638Z,2.85
2023-01-15T13:18:36.951Z,2.58
2023-01-15T13:21:14.849Z,2.70
2023-01-15T13:23:48.175Z,2.60
2023-01-15T13:26:27.840Z,2.38
2023-01-15T13:29:42.157Z,2.10
2023-01-15T13:32:12.517Z,2.20
2023-01-15T13:34:49.539Z,2.33
2023-01-15T13:37:27.067Z,2.20
2023-01-15T13:40:00.256Z,2.33
2023-01-15T13:42:38.057Z,1.73
2023-01-15T13:45:37.346Z,1.92
2023-01-15T13:48:47.267Z,1.58
2023-01-15T13:51:43.376Z,1.80
2023-01-15T13:54:14.461Z,1.75
2023-01-15T13:56:41.008Z,1.83
2023-01-15T13:59:44.069Z,1.70
2023-01-15T14:02:37.552Z,1.70
2023-01-15T14:05:22.850Z,1.83
2023-01-15T14:07:50.519Z,2.00
2023-01-15T14:10:17.281Z,1.50
2023-01-15T14:12:53.339Z,1.55
2023-01-15T14:15:48.763Z,1.52
2023-01-15T14:18:37.364Z,1.70
2023-01-15T14:21:28.690Z,1.42
2023-01-15T14:24:08.283Z,1.48
2023-01-15T14:26:43.544Z,1.40
2023-01-15T14:29:44.163Z,1.33
2023-01-15T14:32:13.657Z,1.60
2023-01-15T14:34:41.049Z,1.63
2023-01-15T14:37:24.758Z,1.40
2023-01-15T14:39:56.095Z,1.42
2023-01-15T14:42:41.037Z,1.42
2023-01-15T14:45:13.501Z,1.50
2023-01-15T14:47:48.796Z,1.45
2023-01-15T14:50:33.470Z,1.55
2023-01-15T14:53:15.545Z,1.60
2023-01-15T14:56:21.369Z,1.10
2023-01-15T14:58:53.931Z,1.40
2023-01-15T15:01:42.275Z,1.40
2023-01-15T15:04:32.998Z,1.30
2023-01-15T15:07:18.956Z,1.30
2023-01-15T15:09:54.929Z,1.27
2023-01-15T15:12:36.279Z,1.10
2023-01-15T15:15:23.411Z,1.00
2023-01-15T15:18:08.698Z,1.30
2023-01-15T15:20:55.272Z,1.00
2023-01-15T15:23:31.327Z,1.05
2023-01-15T15:26:03.644Z,1.45
2023-01-15T15:28:30.432Z,1.20
2023-01-15T15:31:01.551Z,1.33
2023-01-15T15:33:38.105Z,1.33
2023-01-15T15:36:05.873Z,1.38
2023-01-15T15:38:33.913Z,1.20
2023-01-15T15:41:04.420Z,1.40
2023-01-15T15:44:10.431Z,1.30
2023-01-15T15:47:00.409Z,1.23
2023-01-15T15:49:26.993Z,1.20
2023-01-15T15:51:54.290Z,1.40
2023-01-15T15:54:28.282Z,1.17
2023-01-15T15:57:14.258Z,1.35
2023-01-15T15:59:50.228Z,1.23
2023-01-15T16:02:36.583Z,1.20
2023-01-15T16:05:24.910Z,1.27
2023-01-15T16:07:53.072Z,1.33
2023-01-15T16:10:31.379Z,1.30
2023-01-15T16:13:00.429Z,1.48
2023-01-15T16:15:30.246Z,1.35
2023-01-15T16:17:57.630Z,1.63
2023-01-15T16:20:25.006Z,1.20
2023-01-15T16:22:51.565Z,1.10
2023-01-15T16:25:37.773Z,1.10
2023-01-15T16:28:04.949Z,1.55
2023-01-15T16:30:32.395Z,1.60
2023-01-15T16:33:04.532Z,1.30
2023-01-15T16:35:31.877Z,1.30
2023-01-15T16:38:00.902Z,1.60
2023-01-15T16:40:31.466Z,1.40
2023-01-15T16:43:23.649Z,1.30
2023-01-15T16:48:38.510Z,1.13
2023-01-15T16:51:24.251Z,1.30
2023-01-15T16:53:50.814Z,1.60
2023-01-15T16:56:26.673Z,1.80
2023-01-15T16:58:53.282Z,2.42
2023-01-15T17:01:46.760Z,1.95
2023-01-15T17:04:43.215Z,3.08
2023-01-15T17:07:39.876Z,2.45
2023-01-15T17:10:19.263Z,2.35
2023-01-15T17:12:45.814Z,2.38
2023-01-15T17:15:15.272Z,2.63
2023-01-15T17:17:45.906Z,3.00
2023-01-15T17:20:14.111Z,2.67
2023-01-15T17:22:42.632Z,2.60
2023-01-15T17:25:26.224Z,3.22
2023-01-15T17:27:54.601Z,2.63
2023-01-15T17:30:21.786Z,2.95
2023-01-15T17:32:48.751Z,3.15
2023-01-15T17:35:28.078Z,3.17
2023-01-15T17:37:54.909Z,3.50
2023-01-15T17:40:22.230Z,4.20
2023-01-15T17:42:48.959Z,3.72
2023-01-15T17:45:22.613Z,3.42
2023-01-15T17:47:49.173Z,4.55
2023-01-15T17:50:16.403Z,5.05
2023-01-15T17:52:43.581Z,4.72
2023-01-15T17:55:31.600Z,7.00
2023-01-15T17:58:16.712Z,5.13
2023-01-15T18:07:33.917Z,6.25
2023-01-15T18:10:00.796Z,6.03
2023-01-15T18:12:27.428Z,5.93
2023-01-15T18:14:53.928Z,5.20
2023-01-15T18:17:20.518Z,5.13
2023-01-15T18:19:47.003Z,6.47
2023-01-15T18:22:13.880Z,6.20
2023-01-15T18:24:40.767Z,6.05
2023-01-15T18:27:07.439Z,6.18
2023-01-15T18:29:38.586Z,7.40
2023-01-15T18:32:05.502Z,6.33
2023-01-15T18:34:32.045Z,7.50
2023-01-15T18:36:58.703Z,6.50
2023-01-15T18:39:30.741Z,6.45
2023-01-15T18:41:57.498Z,6.82
2023-01-15T18:44:43.832Z,6.88
2023-01-15T18:47:18.275Z,7.80
2023-01-15T18:49:46.288Z,8.35
2023-01-15T18:52:35.078Z,7.55
2023-01-15T18:55:02.190Z,7.32
2023-01-15T18:57:28.891Z,8.30
2023-01-15T18:59:55.435Z,7.95
2023-01-15T19:02:22.237Z,6.57
2023-01-15T19:04:48.962Z,9.45
2023-01-15T19:07:16.563Z,6.95
2023-01-15T19:09:43.251Z,6.00
2023-01-15T19:12:10.296Z,6.00
2023-01-15T19:14:55.381Z,7.05
2023-01-15T19:17:42.974Z,8.70
2023-01-15T19:20:12.104Z,8.32
2023-01-15T19:22:57.777Z,7.43
2023-01-15T19:25:25.956Z,8.10
2023-01-15T19:28:16.160Z,6.70
2023-01-15T19:30:43.449Z,6.82
2023-01-15T19:33:10.247Z,6.95
2023-01-15T19:35:37.849Z,7.20
2023-01-15T19:38:08.235Z,6.45
2023-01-15T19:40:37.808Z,8.40
2023-01-15T19:43:23.050Z,8.20
2023-01-15T19:46:08.237Z,6.75
2023-01-15T19:48:53.158Z,9.00
2023-01-15T19:51:21.149Z,7.55
2023-01-15T19:53:47.899Z,8.10
2023-01-15T19:56:14.441Z,7.18
2023-01-15T19:58:41.094Z,7.80
2023-01-15T20:01:13.780Z,7.75
2023-01-15T20:03:40.393Z,7.43
2023-01-15T20:06:08.574Z,6.68
2023-01-15T20:08:35.243Z,7.30
2023-01-15T20:11:01.789Z,7.68
2023-01-15T20:13:47.005Z,9.15
2023-01-15T20:16:17.892Z,7.28
2023-01-15T20:18:45.231Z,6.95
2023-01-15T20:21:15.663Z,8.85
2023-01-15T20:23:43.303Z,7.13
2023-01-15T20:26:12.528Z,7.60
2023-01-15T20:28:40.876Z,7.95
2023-01-15T20:31:07.596Z,7.65
2023-01-15T20:33:34.069Z,7.13
2023-01-15T20:36:04.150Z,8.30
2023-01-15T20:38:31.139Z,6.97
2023-01-15T20:41:17.633Z,7.28
2023-01-15T20:44:02.469Z,6.00
2023-01-15T20:46:29.048Z,6.10
2023-01-15T20:49:14.492Z,6.75
2023-01-15T20:51:41.054Z,6.88
2023-01-15T20:54:07.618Z,6.05
2023-01-15T20:56:34.222Z,6.25
2023-01-15T20:59:00.830Z,5.13
2023-01-15T21:01:28.641Z,6.30
2023-01-15T21:03:55.376Z,5.22
2023-01-15T21:06:21.972Z,4.57
2023-01-15T21:08:48.650Z,5.38
2023-01-15T21:11:15.230Z,4.60
2023-01-15T21:13:44.970Z,4.57
2023-01-15T21:16:13.079Z,4.55
2023-01-15T21:18:43.207Z,4.78
2023-01-15T21:21:10.661Z,4.75
2023-01-15T21:23:37.362Z,4.03
2023-01-15T21:26:04.010Z,4.07
2023-01-15T21:28:30.589Z,4.30
2023-01-15T21:30:57.577Z,3.40
2023-01-15T21:33:24.185Z,3.47
2023-01-15T21:35:50.717Z,3.30
2023-01-15T21:38:17.300Z,2.47
2023-01-15T21:40:43.936Z,2.95
2023-01-15T21:43:29.592Z,3.38
2023-01-15T21:46:14.471Z,3.20
2023-01-15T21:48:41.085Z,3.15
2023-01-15T21:51:07.714Z,2.83
2023-01-15T21:53:34.323Z,3.00
2023-01-15T21:56:00.990Z,2.83
2023-01-15T21:58:27.713Z,3.00
2023-01-15T22:00:54.329Z,2.95
2023-01-15T22:03:20.962Z,3.92
2023-01-15T22:05:47.462Z,3.28
2023-01-15T22:08:13.948Z,2.90
2023-01-15T22:11:00.786Z,3.10
2023-01-15T22:13:27.315Z,2.83
2023-01-15T22:15:54.818Z,2.85
2023-01-15T22:18:26.101Z,2.75
2023-01-15T22:20:59.732Z,3.00
2023-01-15T22:23:26.718Z,2.85
2023-01-15T22:25:53.849Z,2.63
2023-01-15T22:28:20.617Z,2.92
2023-01-15T22:30:47.742Z,3.55
2023-01-15T22:33:15.354Z,3.05
2023-01-15T22:35:41.967Z,3.13
2023-01-15T22:38:08.845Z,2.75
2023-01-15T22:40:36.411Z,2.90
2023-01-15T22:43:03.039Z,3.08
2023-01-15T22:45:29.629Z,2.90
2023-01-15T22:47:56.152Z,2.45
2023-01-15T22:50:22.716Z,3.25
2023-01-15T22:53:12.110Z,2.97
2023-01-15T22:55:38.616Z,2.72
2023-01-15T22:58:05.179Z,2.90
2023-01-15T23:00:31.823Z,3.88
2023-01-15T23:03:05.203Z,2.90
2023-01-15T23:05:36.572Z,2.72
2023-01-15T23:08:03.458Z,3.22
2023-01-15T23:10:30.045Z,2.72
2023-01-15T23:12:56.598Z,3.22
2023-01-15T23:15:23.091Z,2.67
2023-01-15T23:17:50.344Z,3.40
2023-01-15T23:20:16.922Z,2.70
2023-01-15T23:22:43.553Z,2.75
2023-01-15T23:25:10.186Z,3.70
2023-01-15T23:27:36.974Z,3.50
2023-01-15T23:30:04.360Z,3.00
2023-01-15T23:32:30.928Z,3.25
2023-01-15T23:34:57.522Z,3.13
2023-01-15T23:37:24.076Z,3.30
2023-01-15T23:39:50.759Z,3.63
2023-01-15T23:42:36.046Z,3.45
2023-01-15T23:45:21.087Z,3.80
2023-01-15T23:47:47.769Z,3.53
2023-01-15T23:50:14.379Z,3.58
2023-01-15T23:52:40.909Z,3.65
2023-01-15T23:55:07.813Z,4.38
2023-01-15T23:57:34.506Z,3.70
